createdAt,value
2017-08-15T00:00:34.301Z,86.90
2017-08-15T00:03:02.648Z,86.78
2017-08-15T00:05:30.975Z,86.81
2017-08-15T00:07:59.318Z,86.72
2017-08-15T00:10:28.400Z,87.90
2017-08-15T00:12:56.749Z,88.02
2017-08-15T00:15:25.062Z,87.24
2017-08-15T00:17:53.417Z,87.01
2017-08-15T00:20:21.774Z,87.29
2017-08-15T00:22:50.113Z,86.99
2017-08-15T00:25:18.922Z,87.77
2017-08-15T00:27:47.251Z,87.21
2017-08-15T00:30:15.594Z,86.84
2017-08-15T00:32:44.053Z,86.98
2017-08-15T00:35:13.187Z,87.54
2017-08-15T00:37:41.528Z,86.73
2017-08-15T00:40:09.852Z,87.53
2017-08-15T00:42:38.184Z,87.36
2017-08-15T00:45:07.267Z,87.39
2017-08-15T00:47:35.633Z,86.88
2017-08-15T00:50:03.966Z,86.79
2017-08-15T00:52:32.322Z,87.36
2017-08-15T00:55:01.419Z,87.62
2017-08-15T00:57:29.759Z,87.07
2017-08-15T00:59:58.095Z,87.08
2017-08-15T01:02:26.454Z,86.93
2017-08-15T01:04:55.562Z,87.37
2017-08-15T01:07:23.888Z,87.34
2017-08-15T01:09:52.214Z,88.09
2017-08-15T01:12:21.308Z,87.93
2017-08-15T01:14:49.627Z,87.58
2017-08-15T01:17:18.359Z,87.35
2017-08-15T01:19:46.689Z,87.42
2017-08-15T01:22:15.022Z,88.27
2017-08-15T01:24:44.124Z,88.35
2017-08-15T01:27:12.448Z,87.82
2017-08-15T01:29:41.052Z,87.67
2017-08-15T01:32:09.376Z,87.68
2017-08-15T01:34:37.752Z,87.19
2017-08-15T01:37:06.134Z,87.19
2017-08-15T01:39:34.454Z,87.11
2017-08-15T01:42:02.808Z,87.52
2017-08-15T01:44:31.152Z,87.55
2017-08-15T01:46:59.504Z,88.10
2017-08-15T01:49:27.834Z,88.40
2017-08-15T01:51:56.205Z,88.53
2017-08-15T01:54:25.323Z,88.19
2017-08-15T01:56:53.695Z,88.22
2017-08-15T01:59:22.048Z,88.16
2017-08-15T02:01:50.398Z,88.40
2017-08-15T02:04:18.807Z,88.75
2017-08-15T02:06:47.170Z,88.54
2017-08-15T02:09:17.342Z,87.95
2017-08-15T02:11:45.753Z,87.25
2017-08-15T02:14:14.128Z,87.25
2017-08-15T02:16:42.475Z,87.51
2017-08-15T02:19:11.544Z,87.96
2017-08-15T02:21:39.909Z,88.35
2017-08-15T02:24:08.261Z,88.29
2017-08-15T02:26:36.638Z,88.29
2017-08-15T02:29:04.980Z,87.99
2017-08-15T02:31:33.331Z,87.95
2017-08-15T02:34:01.715Z,88.13
2017-08-15T02:36:30.523Z,88.36
2017-08-15T02:38:58.849Z,88.35
2017-08-15T02:41:27.167Z,88.39
2017-08-15T02:43:55.895Z,88.03
2017-08-15T02:46:24.221Z,87.51
2017-08-15T02:48:52.554Z,87.84
2017-08-15T02:51:20.885Z,87.84
2017-08-15T02:53:49.224Z,88.98
2017-08-15T02:56:17.849Z,88.00
2017-08-15T02:58:46.190Z,87.67
2017-08-15T03:01:14.527Z,87.85
2017-08-15T03:03:43.663Z,87.38
2017-08-15T03:06:12.908Z,87.67
2017-08-15T03:08:41.233Z,88.07
2017-08-15T03:11:09.570Z,88.37
2017-08-15T03:13:38.899Z,88.25
2017-08-15T03:16:07.986Z,87.65
2017-08-15T03:18:36.331Z,87.22
2017-08-15T03:21:04.658Z,87.10
2017-08-15T03:23:33.017Z,86.96
2017-08-15T03:26:02.120Z,86.74
2017-08-15T03:28:30.471Z,87.67
2017-08-15T03:30:58.827Z,87.75
2017-08-15T03:33:27.162Z,87.32
2017-08-15T03:35:56.279Z,87.24
2017-08-15T03:38:24.616Z,87.11
2017-08-15T03:40:52.965Z,87.69
2017-08-15T03:43:21.306Z,87.58
2017-08-15T03:45:49.660Z,87.45
2017-08-15T03:48:18.013Z,87.31
2017-08-15T03:50:46.335Z,87.25
2017-08-15T03:53:15.625Z,86.77
2017-08-15T03:55:43.966Z,86.80
2017-08-15T03:58:12.365Z,86.89
2017-08-15T04:00:40.692Z,86.87
2017-08-15T04:03:09.366Z,86.88
2017-08-15T04:05:37.706Z,87.06
2017-08-15T04:08:06.052Z,86.99
2017-08-15T04:10:34.397Z,87.24
2017-08-15T04:13:03.486Z,87.21
2017-08-15T04:15:31.836Z,87.18
2017-08-15T04:18:00.165Z,87.72
2017-08-15T04:20:28.512Z,87.53
2017-08-15T04:22:56.873Z,87.28
2017-08-15T04:25:25.263Z,87.42
2017-08-15T04:27:53.689Z,87.51
2017-08-15T04:30:22.022Z,87.56
2017-08-15T04:32:50.402Z,87.50
2017-08-15T04:35:18.739Z,87.40
2017-08-15T04:37:47.505Z,87.68
2017-08-15T04:40:15.845Z,88.14
2017-08-15T04:42:44.194Z,88.40
2017-08-15T04:45:12.934Z,88.33
2017-08-15T04:47:41.277Z,88.23
2017-08-15T04:50:09.609Z,87.95
2017-08-15T04:52:38.226Z,87.77
2017-08-15T04:55:06.571Z,87.59
2017-08-15T04:57:34.883Z,87.32
2017-08-15T05:00:03.238Z,87.90
2017-08-15T05:02:31.580Z,88.12
2017-08-15T05:04:59.933Z,89.00
2017-08-15T05:07:28.273Z,88.48
2017-08-15T05:09:56.626Z,88.78
2017-08-15T05:12:24.959Z,89.18
2017-08-15T05:14:53.304Z,89.59
2017-08-15T05:17:21.623Z,89.58
2017-08-15T05:19:50.378Z,89.37
2017-08-15T05:22:18.715Z,89.10
2017-08-15T05:24:47.051Z,89.23
2017-08-15T05:27:15.407Z,88.92
2017-08-15T05:29:44.508Z,88.68
2017-08-15T05:32:12.856Z,88.59
2017-08-15T05:34:41.192Z,88.54
2017-08-15T05:37:09.539Z,88.52
2017-08-15T05:39:38.638Z,88.76
2017-08-15T05:42:07.351Z,88.85
2017-08-15T05:44:35.667Z,88.83
2017-08-15T05:47:04.008Z,89.04
2017-08-15T05:49:32.454Z,88.50
2017-08-15T05:52:00.783Z,88.70
2017-08-15T05:54:29.129Z,89.00
2017-08-15T05:56:58.282Z,88.69
2017-08-15T05:59:26.660Z,88.83
2017-08-15T06:01:54.988Z,89.19
2017-08-15T06:04:23.349Z,88.21
2017-08-15T06:06:51.703Z,87.73
2017-08-15T06:09:20.439Z,87.39
2017-08-15T06:11:48.781Z,87.66
2017-08-15T06:14:17.121Z,87.24
2017-08-15T06:16:45.566Z,87.15
2017-08-15T06:19:13.893Z,86.80
2017-08-15T06:21:42.275Z,86.81
2017-08-15T06:24:10.611Z,86.35
2017-08-15T06:26:38.947Z,86.64
2017-08-15T06:29:07.258Z,86.75
2017-08-15T06:31:35.603Z,86.38
2017-08-15T06:34:03.929Z,85.75
2017-08-15T06:36:32.279Z,85.64
2017-08-15T06:39:00.609Z,85.11
2017-08-15T06:41:28.961Z,84.83
2017-08-15T06:43:58.049Z,85.51
2017-08-15T06:46:26.740Z,84.91
2017-08-15T06:48:55.065Z,85.07
2017-08-15T06:51:23.384Z,85.09
2017-08-15T06:53:52.500Z,84.95
2017-08-15T06:56:20.854Z,85.47
2017-08-15T06:58:49.204Z,85.44
2017-08-15T07:01:17.537Z,86.43
2017-08-15T07:03:46.669Z,86.59
2017-08-15T07:06:15.011Z,86.73
2017-08-15T07:08:43.370Z,86.72
2017-08-15T07:11:11.714Z,87.09
2017-08-15T07:13:40.087Z,87.10
2017-08-15T07:16:08.460Z,87.08
2017-08-15T07:18:36.813Z,87.21
2017-08-15T07:21:05.908Z,86.99
2017-08-15T07:23:34.606Z,86.82
2017-08-15T07:26:02.942Z,86.46
2017-08-15T07:28:31.263Z,86.30
2017-08-15T07:30:59.609Z,85.60
2017-08-15T07:33:27.945Z,84.93
2017-08-15T07:35:56.282Z,84.72
2017-08-15T07:38:24.611Z,84.69
2017-08-15T07:40:52.960Z,84.68
2017-08-15T07:43:21.296Z,84.38
2017-08-15T07:45:49.664Z,84.36
2017-08-15T07:48:17.989Z,84.44
2017-08-15T07:50:47.378Z,84.23
2017-08-15T07:53:15.701Z,84.09
2017-08-15T07:55:44.107Z,84.82
2017-08-15T07:58:12.518Z,85.46
2017-08-15T08:00:40.841Z,85.58
2017-08-15T08:03:09.197Z,85.25
2017-08-15T08:05:38.288Z,85.33
2017-08-15T08:08:06.631Z,85.00
2017-08-15T08:10:34.950Z,84.51
2017-08-15T08:13:04.109Z,83.90
2017-08-15T08:15:32.475Z,83.41
2017-08-15T08:18:00.819Z,83.50
2017-08-15T08:20:29.174Z,82.74
2017-08-15T08:22:57.501Z,82.29
2017-08-15T08:25:25.861Z,81.83
2017-08-15T08:27:54.198Z,81.53
2017-08-15T08:30:22.562Z,82.21
2017-08-15T08:32:50.889Z,81.96
2017-08-15T08:35:19.260Z,81.34
2017-08-15T08:37:47.608Z,81.16
2017-08-15T08:40:15.948Z,81.07
2017-08-15T08:42:44.308Z,81.09
2017-08-15T08:45:12.650Z,80.88
2017-08-15T08:47:41.085Z,81.16
2017-08-15T08:50:09.404Z,77.43
2017-08-15T08:52:37.800Z,76.75
2017-08-15T08:55:06.140Z,72.59
2017-08-15T08:57:34.484Z,72.55
2017-08-15T09:00:02.821Z,72.90
2017-08-15T09:02:31.184Z,72.99
2017-08-15T09:04:59.540Z,71.80
2017-08-15T09:07:27.876Z,71.23
2017-08-15T09:09:56.230Z,72.04
2017-08-15T09:12:24.577Z,69.84
2017-08-15T09:14:52.932Z,70.68
2017-08-15T09:17:21.264Z,69.05
2017-08-15T09:19:49.620Z,69.99
2017-08-15T09:22:17.947Z,70.78
2017-08-15T09:24:46.283Z,70.81
2017-08-15T09:27:14.628Z,70.79
2017-08-15T09:29:46.785Z,69.95
2017-08-15T09:32:15.938Z,72.18
2017-08-15T09:34:44.290Z,71.86
2017-08-15T09:37:12.640Z,69.85
2017-08-15T09:39:40.973Z,70.13
2017-08-15T09:42:09.714Z,70.27
2017-08-15T09:44:38.054Z,69.08
2017-08-15T09:47:06.387Z,69.01
2017-08-15T09:49:34.740Z,68.72
2017-08-15T09:52:03.834Z,67.73
2017-08-15T09:54:32.192Z,68.77
2017-08-15T09:57:00.508Z,68.67
2017-08-15T09:59:29.614Z,68.75
2017-08-15T10:01:57.937Z,68.13
2017-08-15T10:04:26.271Z,69.13
2017-08-15T10:06:55.355Z,69.78
2017-08-15T10:09:23.696Z,70.20
2017-08-15T10:11:52.029Z,69.64
2017-08-15T10:14:20.379Z,69.69
2017-08-15T10:16:48.734Z,71.09
2017-08-15T10:19:17.129Z,71.28
2017-08-15T10:21:45.473Z,71.70
2017-08-15T10:24:13.799Z,70.93
2017-08-15T10:26:42.139Z,70.16
2017-08-15T10:29:10.478Z,70.58
2017-08-15T10:31:38.820Z,69.49
2017-08-15T10:34:07.174Z,68.04
2017-08-15T10:36:35.539Z,69.53
2017-08-15T10:39:03.862Z,70.14
2017-08-15T10:41:32.218Z,70.87
2017-08-15T10:44:00.558Z,71.19
2017-08-15T10:46:28.902Z,71.51
2017-08-15T10:48:57.253Z,71.50
2017-08-15T10:51:25.619Z,72.60
2017-08-15T10:53:53.984Z,72.29
2017-08-15T10:56:22.310Z,73.68
2017-08-15T10:58:51.029Z,73.83
2017-08-15T11:01:19.402Z,73.76
2017-08-15T11:03:47.734Z,73.05
2017-08-15T11:06:16.078Z,73.23
2017-08-15T11:08:44.423Z,72.87
2017-08-15T11:11:12.779Z,72.50
2017-08-15T11:13:41.113Z,72.59
2017-08-15T11:16:09.465Z,73.42
2017-08-15T11:18:37.801Z,73.78
2017-08-15T11:21:06.157Z,72.82
2017-08-15T11:23:34.486Z,74.06
2017-08-15T11:26:02.834Z,72.99
2017-08-15T11:28:31.165Z,73.06
2017-08-15T11:30:59.548Z,73.19
2017-08-15T11:33:27.939Z,74.79
2017-08-15T11:35:57.049Z,75.83
2017-08-15T11:38:25.396Z,75.66
2017-08-15T11:40:54.116Z,76.17
2017-08-15T11:43:22.460Z,76.28
2017-08-15T11:45:50.809Z,77.87
2017-08-15T11:48:19.165Z,79.63
2017-08-15T11:50:47.496Z,81.62
2017-08-15T11:53:15.866Z,82.24
2017-08-15T11:55:44.207Z,82.59
2017-08-15T11:58:12.575Z,83.56
2017-08-15T12:00:40.930Z,83.60
2017-08-15T12:03:09.280Z,85.41
2017-08-15T12:05:37.631Z,85.83
2017-08-15T12:08:05.948Z,85.86
2017-08-15T12:10:34.303Z,86.45
2017-08-15T12:13:02.645Z,86.03
2017-08-15T12:15:31.766Z,85.96
2017-08-15T12:18:00.096Z,86.51
2017-08-15T12:20:28.445Z,87.05
2017-08-15T12:22:56.783Z,84.24
2017-08-15T12:25:25.874Z,84.63
2017-08-15T12:27:54.240Z,84.33
2017-08-15T12:30:22.568Z,85.38
2017-08-15T12:32:50.916Z,85.43
2017-08-15T12:35:19.252Z,83.76
2017-08-15T12:37:48.087Z,85.51
2017-08-15T12:40:16.413Z,85.58
2017-08-15T12:42:44.750Z,84.48
2017-08-15T12:45:13.095Z,84.75
2017-08-15T12:47:41.442Z,84.91
2017-08-15T12:50:09.805Z,85.61
2017-08-15T12:52:38.137Z,84.04
2017-08-15T12:55:06.486Z,82.06
2017-08-15T12:57:34.824Z,83.79
2017-08-15T13:00:03.161Z,83.24
2017-08-15T13:02:31.523Z,83.33
2017-08-15T13:04:59.862Z,81.55
2017-08-15T13:07:28.226Z,82.02
2017-08-15T13:09:57.347Z,80.17
2017-08-15T13:12:25.683Z,80.59
2017-08-15T13:14:54.098Z,80.96
2017-08-15T13:17:22.429Z,80.87
2017-08-15T13:19:50.783Z,82.28
2017-08-15T13:22:19.168Z,81.48
2017-08-15T13:24:47.491Z,83.14
2017-08-15T13:27:16.613Z,83.16
2017-08-15T13:29:44.965Z,83.24
2017-08-15T13:32:13.326Z,82.68
2017-08-15T13:34:41.674Z,83.42
2017-08-15T13:37:10.028Z,83.33
2017-08-15T13:39:39.122Z,80.51
2017-08-15T13:42:07.473Z,82.33
2017-08-15T13:44:35.906Z,82.66
2017-08-15T13:47:04.265Z,80.83
2017-08-15T13:49:32.602Z,82.28
2017-08-15T13:52:00.952Z,82.66
2017-08-15T13:54:29.339Z,82.20
2017-08-15T13:56:57.666Z,81.06
2017-08-15T13:59:26.795Z,80.08
2017-08-15T14:01:55.107Z,79.23
2017-08-15T14:04:23.469Z,77.76
2017-08-15T14:06:51.818Z,78.06
2017-08-15T14:09:20.167Z,78.70
2017-08-15T14:11:48.504Z,78.10
2017-08-15T14:14:16.853Z,79.05
2017-08-15T14:16:45.249Z,78.81
2017-08-15T14:19:13.581Z,77.21
2017-08-15T14:21:41.936Z,78.31
2017-08-15T14:24:10.286Z,76.10
2017-08-15T14:26:38.629Z,76.83
2017-08-15T14:29:11.294Z,74.96
2017-08-15T14:31:40.100Z,75.25
2017-08-15T14:34:08.429Z,76.25
2017-08-15T14:36:36.788Z,77.79
2017-08-15T14:39:05.150Z,74.96
2017-08-15T14:41:33.491Z,75.35
2017-08-15T14:44:01.843Z,76.67
2017-08-15T14:46:30.172Z,76.06
2017-08-15T14:48:58.526Z,73.68
2017-08-15T14:51:26.857Z,74.85
2017-08-15T14:53:55.215Z,74.82
2017-08-15T14:56:23.569Z,73.63
2017-08-15T14:58:51.921Z,73.49
2017-08-15T15:01:20.301Z,74.21
2017-08-15T15:03:48.663Z,75.01
2017-08-15T15:06:17.015Z,76.28
2017-08-15T15:08:45.340Z,74.33
2017-08-15T15:11:13.794Z,72.92
2017-08-15T15:13:42.155Z,71.08
2017-08-15T15:16:10.590Z,70.42
2017-08-15T15:18:38.921Z,68.23
2017-08-15T15:21:07.270Z,70.33
2017-08-15T15:23:35.629Z,70.66
2017-08-15T15:26:03.959Z,70.79
2017-08-15T15:28:33.105Z,64.88
2017-08-15T15:31:01.434Z,64.04
2017-08-15T15:33:29.815Z,65.50
2017-08-15T15:35:58.193Z,66.11
2017-08-15T15:38:26.564Z,65.51
2017-08-15T15:40:54.951Z,66.50
2017-08-15T15:43:23.284Z,64.58
2017-08-15T15:45:53.768Z,67.54
2017-08-15T15:48:22.306Z,67.67
2017-08-15T15:50:51.158Z,66.78
2017-08-15T15:53:19.521Z,67.45
2017-08-15T15:55:48.691Z,67.78
2017-08-15T15:58:17.560Z,67.63
2017-08-15T16:00:45.887Z,68.10
2017-08-15T16:03:15.305Z,68.24
2017-08-15T16:05:43.667Z,68.81
2017-08-15T16:08:12.005Z,70.34
2017-08-15T16:10:40.352Z,68.94
2017-08-15T16:13:08.711Z,69.42
2017-08-15T16:15:37.903Z,69.81
2017-08-15T16:18:06.232Z,70.14
2017-08-15T16:20:34.657Z,70.00
2017-08-15T16:23:03.019Z,69.81
2017-08-15T16:25:31.364Z,68.99
2017-08-15T16:27:59.748Z,69.51
2017-08-15T16:30:28.085Z,70.07
2017-08-15T16:32:56.454Z,69.74
2017-08-15T16:35:24.798Z,69.54
2017-08-15T16:37:53.138Z,69.76
2017-08-15T16:40:21.491Z,71.30
2017-08-15T16:42:50.183Z,70.74
2017-08-15T16:45:18.564Z,68.07
2017-08-15T16:47:47.748Z,68.65
2017-08-15T16:50:16.089Z,68.30
2017-08-15T16:52:44.460Z,67.18
2017-08-15T16:55:12.800Z,68.17
2017-08-15T16:57:41.180Z,66.21
2017-08-15T17:00:09.562Z,66.87
2017-08-15T17:02:37.950Z,66.26
2017-08-15T17:05:06.334Z,66.19
2017-08-15T17:07:34.684Z,64.97
2017-08-15T17:10:03.411Z,65.39
2017-08-15T17:12:31.756Z,65.88
2017-08-15T17:15:00.080Z,65.19
2017-08-15T17:17:28.486Z,65.71
2017-08-15T17:19:56.822Z,67.01
2017-08-15T17:22:25.965Z,66.67
2017-08-15T17:24:54.312Z,66.66
2017-08-15T17:27:22.663Z,67.01
2017-08-15T17:29:51.038Z,67.26
2017-08-15T17:32:19.396Z,67.17
2017-08-15T17:34:47.755Z,67.98
2017-08-15T17:37:16.111Z,67.97
2017-08-15T17:39:44.599Z,69.24
2017-08-15T17:42:12.994Z,70.05
2017-08-15T17:44:41.968Z,69.67
2017-08-15T17:47:10.359Z,70.02
2017-08-15T17:49:43.424Z,70.75
2017-08-15T17:52:11.963Z,71.56
2017-08-15T17:54:40.289Z,71.55
2017-08-15T17:57:09.422Z,71.15
2017-08-15T17:59:37.793Z,71.92
2017-08-15T18:02:06.148Z,72.25
2017-08-15T18:04:34.512Z,72.11
2017-08-15T18:07:03.033Z,72.85
2017-08-15T18:09:31.416Z,73.24
2017-08-15T18:12:00.615Z,74.12
2017-08-15T18:14:28.983Z,74.85
2017-08-15T18:16:57.361Z,74.23
2017-08-15T18:19:25.725Z,75.98
2017-08-15T18:21:54.133Z,76.61
2017-08-15T18:24:22.476Z,76.19
2017-08-15T18:26:51.172Z,76.71
2017-08-15T18:29:19.537Z,77.51
2017-08-15T18:31:47.893Z,77.81
2017-08-15T18:34:16.364Z,78.32
2017-08-15T18:36:44.716Z,78.67
2017-08-15T18:39:13.086Z,78.48
2017-08-15T18:41:41.463Z,78.89
2017-08-15T18:44:09.883Z,79.31
2017-08-15T18:46:38.253Z,79.85
2017-08-15T18:49:06.650Z,79.86
2017-08-15T18:51:35.037Z,80.15
2017-08-15T18:54:03.384Z,80.48
2017-08-15T18:56:31.780Z,80.03
2017-08-15T18:59:00.117Z,80.66
2017-08-15T19:01:31.916Z,81.08
2017-08-15T19:04:00.250Z,80.99
2017-08-15T19:06:28.625Z,81.33
2017-08-15T19:08:56.985Z,81.59
2017-08-15T19:11:25.545Z,81.80
2017-08-15T19:13:54.561Z,81.85
2017-08-15T19:16:22.927Z,82.52
2017-08-15T19:18:52.598Z,82.69
2017-08-15T19:21:21.204Z,82.65
2017-08-15T19:23:49.558Z,82.56
2017-08-15T19:26:17.907Z,82.86
2017-08-15T19:28:46.276Z,83.04
2017-08-15T19:31:14.655Z,82.67
2017-08-15T19:33:43.496Z,83.36
2017-08-15T19:36:11.864Z,83.24
2017-08-15T19:38:40.216Z,83.75
2017-08-15T19:41:09.503Z,84.12
2017-08-15T19:43:37.873Z,83.99
2017-08-15T19:46:06.282Z,84.20
2017-08-15T19:48:35.433Z,83.98
2017-08-15T19:51:03.793Z,84.58
2017-08-15T19:53:32.468Z,84.47
2017-08-15T19:56:00.799Z,84.75
2017-08-15T19:58:29.135Z,84.46
2017-08-15T20:00:57.537Z,84.68
2017-08-15T20:03:25.870Z,84.70
2017-08-15T20:05:54.978Z,84.99
2017-08-15T20:08:23.373Z,85.16
2017-08-15T20:10:51.731Z,84.77
2017-08-15T20:13:20.098Z,84.80
2017-08-15T20:15:48.452Z,84.99
2017-08-15T20:18:16.825Z,83.60
2017-08-15T20:20:45.185Z,82.00
2017-08-15T20:23:13.999Z,81.47
2017-08-15T20:25:42.339Z,80.93
2017-08-15T20:28:10.677Z,80.04
2017-08-15T20:30:39.033Z,80.09
2017-08-15T20:33:07.370Z,83.08
2017-08-15T20:35:36.090Z,83.56
2017-08-15T20:38:04.871Z,84.05
2017-08-15T20:40:33.734Z,84.41
2017-08-15T20:43:03.482Z,85.76
2017-08-15T20:45:32.346Z,86.36
2017-08-15T20:48:01.304Z,86.32
2017-08-15T20:50:30.229Z,87.39
2017-08-15T20:52:59.165Z,87.06
2017-08-15T20:55:28.108Z,87.92
2017-08-15T20:57:56.914Z,87.47
2017-08-15T21:00:26.242Z,87.77
2017-08-15T21:02:54.588Z,87.97
2017-08-15T21:05:22.936Z,88.81
2017-08-15T21:07:51.269Z,88.63
2017-08-15T21:10:19.622Z,88.60
2017-08-15T21:12:47.977Z,89.00
2017-08-15T21:15:16.323Z,89.01
2017-08-15T21:17:44.686Z,88.99
2017-08-15T21:20:13.016Z,88.84
2017-08-15T21:22:41.387Z,88.40
2017-08-15T21:25:09.725Z,89.14
2017-08-15T21:27:38.141Z,89.62
2017-08-15T21:30:06.490Z,89.01
2017-08-15T21:32:34.821Z,89.53
2017-08-15T21:35:03.156Z,89.42
2017-08-15T21:37:31.502Z,89.42
2017-08-15T21:39:59.847Z,89.37
2017-08-15T21:42:28.185Z,88.97
2017-08-15T21:44:56.529Z,89.52
2017-08-15T21:47:24.887Z,89.05
2017-08-15T21:49:53.228Z,88.89
2017-08-15T21:52:22.008Z,89.25
2017-08-15T21:54:50.337Z,89.43
2017-08-15T21:57:18.700Z,89.34
2017-08-15T21:59:47.425Z,88.98
2017-08-15T22:02:21.456Z,89.07
2017-08-15T22:04:49.790Z,89.57
2017-08-15T22:07:18.146Z,89.64
2017-08-15T22:09:46.492Z,89.37
2017-08-15T22:12:14.839Z,89.46
2017-08-15T22:14:43.205Z,88.74
2017-08-15T22:17:12.654Z,89.00
2017-08-15T22:19:41.005Z,89.99
2017-08-15T22:22:09.349Z,89.86
2017-08-15T22:24:37.708Z,88.97
2017-08-15T22:27:06.037Z,89.28
2017-08-15T22:29:34.440Z,88.91
2017-08-15T22:32:04.474Z,89.42
2017-08-15T22:34:32.800Z,90.17
2017-08-15T22:37:01.133Z,90.52
2017-08-15T22:39:29.495Z,89.58
2017-08-15T22:41:58.639Z,89.83
2017-08-15T22:44:26.994Z,88.98
2017-08-15T22:46:55.362Z,89.21
2017-08-15T22:49:23.719Z,89.73
2017-08-15T22:51:52.069Z,89.45
2017-08-15T22:54:20.457Z,89.26
2017-08-15T22:56:48.808Z,88.81
2017-08-15T22:59:17.419Z,89.50
2017-08-15T23:01:45.735Z,90.14
2017-08-15T23:04:14.785Z,89.73
2017-08-15T23:06:43.593Z,89.70
2017-08-15T23:09:11.933Z,89.30
2017-08-15T23:11:40.354Z,89.28
2017-08-15T23:14:08.725Z,89.38
2017-08-15T23:16:37.460Z,89.18
2017-08-15T23:19:05.842Z,89.68
2017-08-15T23:21:34.178Z,89.42
2017-08-15T23:24:02.533Z,89.09
2017-08-15T23:26:30.879Z,89.50
2017-08-15T23:28:59.229Z,89.28
2017-08-15T23:31:27.930Z,89.30
2017-08-15T23:33:57.083Z,88.47
2017-08-15T23:36:25.440Z,89.22
2017-08-15T23:38:53.800Z,89.34
2017-08-15T23:41:22.151Z,88.78
2017-08-15T23:43:50.494Z,89.17
2017-08-15T23:46:18.873Z,89.67
2017-08-15T23:48:47.207Z,90.20
2017-08-15T23:51:16.323Z,89.72
2017-08-15T23:53:44.663Z,89.60
2017-08-15T23:56:13.006Z,89.95
2017-08-15T23:58:41.354Z,89.74
